createdAt,value
2023-05-21T00:00:43.281Z,4.05
2023-05-21T00:03:14.184Z,3.05
2023-05-21T00:05:42.679Z,3.03
2023-05-21T00:08:11.152Z,3.15
2023-05-21T00:10:39.881Z,2.78
2023-05-21T00:13:09.070Z,3.67
2023-05-21T00:15:37.665Z,2.42
2023-05-21T00:18:07.854Z,1.90
2023-05-21T00:20:37.232Z,3.47
2023-05-21T00:23:05.597Z,2.10
2023-05-21T00:25:34.174Z,1.70
2023-05-21T00:28:02.657Z,2.25
2023-05-21T00:30:31.116Z,4.25
2023-05-21T00:33:02.527Z,2.13
2023-05-21T00:35:32.396Z,2.45
2023-05-21T00:38:00.900Z,2.45
2023-05-21T00:40:29.918Z,2.42
2023-05-21T00:42:58.492Z,2.22
2023-05-21T00:45:27.049Z,3.70
2023-05-21T00:47:55.603Z,1.92
2023-05-21T00:50:24.522Z,2.40
2023-05-21T00:52:54.486Z,6.38
2023-05-21T00:55:23.227Z,7.25
2023-05-21T00:57:51.562Z,4.20
2023-05-21T01:00:20.111Z,1.92
2023-05-21T01:02:49.912Z,4.35
2023-05-21T01:05:18.530Z,3.40
2023-05-21T01:07:48.322Z,1.95
2023-05-21T01:10:18.056Z,4.50
2023-05-21T01:12:46.492Z,4.68
2023-05-21T01:15:15.179Z,3.88
2023-05-21T01:17:46.084Z,3.28
2023-05-21T01:20:17.937Z,3.05
2023-05-21T01:22:55.968Z,3.08
2023-05-21T01:25:25.842Z,3.15
2023-05-21T01:27:54.134Z,5.28
2023-05-21T01:30:23.485Z,3.65
2023-05-21T01:32:56.881Z,1.92
2023-05-21T01:35:28.631Z,3.00
2023-05-21T01:38:01.324Z,2.60
2023-05-21T01:40:31.662Z,3.03
2023-05-21T01:43:00.270Z,4.65
2023-05-21T01:45:30.005Z,2.65
2023-05-21T01:47:59.001Z,3.38
2023-05-21T01:50:27.486Z,1.90
2023-05-21T01:52:57.036Z,3.20
2023-05-21T01:55:26.939Z,7.70
2023-05-21T01:57:55.862Z,4.25
2023-05-21T02:00:24.764Z,2.45
2023-05-21T02:02:53.937Z,2.33
2023-05-21T02:05:22.374Z,5.13
2023-05-21T02:07:52.018Z,2.90
2023-05-21T02:10:20.791Z,3.03
2023-05-21T02:12:50.486Z,2.97
2023-05-21T02:15:19.352Z,3.65
2023-05-21T02:17:47.927Z,3.78
2023-05-21T02:20:16.358Z,3.45
2023-05-21T02:22:45.567Z,5.18
2023-05-21T02:25:15.021Z,3.45
2023-05-21T02:27:43.628Z,2.60
2023-05-21T02:30:14.174Z,3.28
2023-05-21T02:32:43.537Z,2.80
2023-05-21T02:35:12.585Z,3.20
2023-05-21T02:37:41.820Z,2.97
2023-05-21T02:40:10.837Z,2.45
2023-05-21T02:42:40.095Z,3.60
2023-05-21T02:45:11.194Z,4.28
2023-05-21T02:47:42.925Z,11.15
2023-05-21T02:50:11.363Z,3.97
2023-05-21T02:52:47.792Z,3.55
2023-05-21T02:55:16.369Z,2.20
2023-05-21T02:57:44.810Z,4.35
2023-05-21T03:00:13.800Z,3.55
2023-05-21T03:02:45.156Z,3.53
2023-05-21T03:05:13.568Z,3.83
2023-05-21T03:07:43.680Z,3.90
2023-05-21T03:10:12.763Z,3.63
2023-05-21T03:12:41.121Z,3.45
2023-05-21T03:15:10.127Z,2.53
2023-05-21T03:17:38.524Z,4.03
2023-05-21T03:20:09.382Z,4.72
2023-05-21T03:22:38.565Z,3.33
2023-05-21T03:25:07.252Z,4.45
2023-05-21T03:27:35.638Z,3.60
2023-05-21T03:30:06.987Z,4.95
2023-05-21T03:32:41.406Z,4.38
2023-05-21T03:35:12.064Z,2.25
2023-05-21T03:37:40.474Z,4.03
2023-05-21T03:40:10.692Z,3.92
2023-05-21T03:42:39.244Z,5.30
2023-05-21T03:45:08.415Z,3.00
2023-05-21T03:47:55.622Z,6.13
2023-05-21T03:50:25.441Z,3.95
2023-05-21T03:52:53.710Z,4.53
2023-05-21T03:55:22.452Z,3.28
2023-05-21T03:57:50.904Z,4.07
2023-05-21T04:00:19.480Z,3.45
2023-05-21T04:02:49.481Z,4.10
2023-05-21T04:05:18.927Z,3.58
2023-05-21T04:07:48.755Z,4.65
2023-05-21T04:10:17.328Z,6.03
2023-05-21T04:12:46.122Z,3.65
2023-05-21T04:15:14.529Z,4.88
2023-05-21T04:17:43.174Z,3.58
2023-05-21T04:20:12.039Z,5.13
2023-05-21T04:22:40.395Z,5.35
2023-05-21T04:25:10.739Z,5.40
2023-05-21T04:27:40.251Z,7.40
2023-05-21T04:30:11.194Z,5.70
2023-05-21T04:32:40.013Z,6.60
2023-05-21T04:35:10.337Z,4.65
2023-05-21T04:37:42.275Z,3.05
2023-05-21T04:40:12.841Z,4.68
2023-05-21T04:42:41.316Z,3.67
2023-05-21T04:45:11.336Z,3.63
2023-05-21T04:47:42.506Z,6.00
2023-05-21T04:50:11.949Z,4.45
2023-05-21T04:52:41.387Z,6.40
2023-05-21T04:55:10.147Z,5.05
2023-05-21T04:57:39.970Z,7.78
2023-05-21T05:00:10.383Z,5.80
2023-05-21T05:02:43.357Z,4.38
2023-05-21T05:05:11.834Z,4.68
2023-05-21T05:07:40.183Z,3.55
2023-05-21T05:10:09.058Z,3.65
2023-05-21T05:12:37.409Z,6.65
2023-05-21T05:15:08.713Z,4.40
2023-05-21T05:17:39.832Z,4.43
2023-05-21T05:20:09.770Z,3.30
2023-05-21T05:22:38.214Z,4.22
2023-05-21T05:25:07.730Z,5.95
2023-05-21T05:27:38.352Z,5.18
2023-05-21T05:30:09.728Z,4.88
2023-05-21T05:32:38.206Z,4.43
2023-05-21T05:35:07.242Z,4.10
2023-05-21T05:37:35.881Z,4.05
2023-05-21T05:40:05.175Z,4.10
2023-05-21T05:42:33.607Z,5.18
2023-05-21T05:45:06.345Z,4.72
2023-05-21T05:47:36.922Z,5.35
2023-05-21T05:50:05.468Z,5.22
2023-05-21T05:52:33.925Z,3.58
2023-05-21T05:55:02.239Z,3.95
2023-05-21T05:57:31.090Z,2.67
2023-05-21T06:00:04.800Z,4.55
2023-05-21T06:02:42.011Z,2.58
2023-05-21T06:05:11.759Z,5.82
2023-05-21T06:07:40.691Z,5.05
2023-05-21T06:10:09.961Z,5.03
2023-05-21T06:12:38.411Z,3.55
2023-05-21T06:15:08.140Z,6.18
2023-05-21T06:17:36.702Z,5.82
2023-05-21T06:20:07.370Z,5.93
2023-05-21T06:22:36.896Z,4.35
2023-05-21T06:25:07.220Z,4.70
2023-05-21T06:27:35.804Z,4.75
2023-05-21T06:30:06.220Z,5.30
2023-05-21T06:32:35.022Z,4.65
2023-05-21T06:35:03.475Z,4.10
2023-05-21T06:37:33.201Z,6.90
2023-05-21T06:40:01.686Z,5.43
2023-05-21T06:42:32.149Z,4.82
2023-05-21T06:45:39.537Z,4.35
2023-05-21T06:48:20.509Z,6.15
2023-05-21T06:50:49.737Z,5.45
2023-05-21T06:53:19.874Z,5.38
2023-05-21T06:55:49.174Z,4.78
2023-05-21T06:58:22.794Z,6.55
2023-05-21T07:00:51.305Z,6.07
2023-05-21T07:03:20.025Z,6.25
2023-05-21T07:05:48.809Z,4.70
2023-05-21T07:08:17.280Z,4.45
2023-05-21T07:10:47.132Z,5.50
2023-05-21T07:13:15.661Z,4.53
2023-05-21T07:15:44.202Z,5.05
2023-05-21T07:18:13.248Z,5.30
2023-05-21T07:20:41.873Z,8.45
2023-05-21T07:23:13.876Z,6.03
2023-05-21T07:25:42.358Z,10.10
2023-05-21T07:28:12.147Z,6.13
2023-05-21T07:30:40.599Z,5.68
2023-05-21T07:33:13.760Z,7.38
2023-05-21T07:35:42.465Z,5.20
2023-05-21T07:38:11.394Z,5.13
2023-05-21T07:40:39.932Z,6.88
2023-05-21T07:43:08.348Z,7.20
2023-05-21T07:45:39.452Z,5.25
2023-05-21T07:48:08.322Z,6.72
2023-05-21T07:50:46.567Z,6.53
2023-05-21T07:53:15.217Z,7.78
2023-05-21T07:55:47.838Z,8.15
2023-05-21T07:58:20.270Z,8.98
2023-05-21T08:00:51.250Z,7.35
2023-05-21T08:03:22.035Z,5.95
2023-05-21T08:05:52.017Z,6.53
2023-05-21T08:08:22.077Z,6.82
2023-05-21T08:10:51.932Z,5.82
2023-05-21T08:13:21.157Z,5.13
2023-05-21T08:15:53.125Z,5.47
2023-05-21T08:18:23.800Z,7.00
2023-05-21T08:20:53.272Z,6.57
2023-05-21T08:23:23.069Z,7.93
2023-05-21T08:25:55.194Z,7.60
2023-05-21T08:28:24.094Z,5.80
2023-05-21T08:30:54.923Z,6.10
2023-05-21T08:33:25.123Z,5.72
2023-05-21T08:35:53.496Z,6.60
2023-05-21T08:38:30.452Z,5.75
2023-05-21T08:41:10.659Z,6.07
2023-05-21T08:43:39.607Z,5.60
2023-05-21T08:46:10.835Z,9.57
2023-05-21T08:48:41.479Z,6.70
2023-05-21T08:51:10.002Z,6.82
2023-05-21T08:53:45.741Z,6.78
2023-05-21T08:56:18.076Z,7.00
2023-05-21T08:58:50.843Z,8.60
2023-05-21T09:01:26.639Z,5.88
2023-05-21T09:04:20.894Z,5.72
2023-05-21T09:06:53.248Z,7.03
2023-05-21T09:09:35.816Z,5.80
2023-05-21T09:12:04.434Z,7.75
2023-05-21T09:14:33.743Z,7.63
2023-05-21T09:17:16.508Z,6.68
2023-05-21T09:20:09.388Z,7.38
2023-05-21T09:22:38.590Z,7.50
2023-05-21T09:25:09.093Z,5.10
2023-05-21T09:27:37.514Z,5.72
2023-05-21T09:30:06.985Z,5.97
2023-05-21T09:32:36.758Z,7.20
2023-05-21T09:35:09.569Z,3.85
2023-05-21T09:37:43.767Z,9.10
2023-05-21T09:40:13.818Z,6.57
2023-05-21T09:42:42.989Z,6.78
2023-05-21T09:45:13.173Z,5.68
2023-05-21T09:47:46.513Z,6.78
2023-05-21T09:50:15.049Z,8.73
2023-05-21T09:52:43.346Z,7.70
2023-05-21T09:55:12.930Z,6.63
2023-05-21T09:57:44.624Z,5.32
2023-05-21T10:00:19.324Z,7.60
2023-05-21T10:02:49.423Z,8.43
2023-05-21T10:05:18.536Z,6.38
2023-05-21T10:07:49.441Z,6.10
2023-05-21T10:10:18.435Z,5.07
2023-05-21T10:12:48.254Z,5.95
2023-05-21T10:15:22.213Z,6.38
2023-05-21T10:17:51.938Z,4.22
2023-05-21T10:20:20.930Z,5.85
2023-05-21T10:22:49.550Z,9.30
2023-05-21T10:25:18.383Z,5.70
2023-05-21T10:27:46.829Z,4.68
2023-05-21T10:30:17.741Z,6.15
2023-05-21T10:32:49.749Z,5.45
2023-05-21T10:35:19.667Z,7.93
2023-05-21T10:37:48.232Z,6.32
2023-05-21T10:40:16.609Z,6.80
2023-05-21T10:42:55.677Z,6.00
2023-05-21T10:45:28.777Z,9.48
2023-05-21T10:48:15.135Z,6.32
2023-05-21T10:50:52.144Z,5.82
2023-05-21T10:53:23.868Z,7.00
2023-05-21T10:55:58.597Z,10.05
2023-05-21T10:58:47.966Z,5.70
2023-05-21T11:01:19.250Z,8.20
2023-05-21T11:03:48.505Z,7.30
2023-05-21T11:06:26.631Z,4.85
2023-05-21T11:08:55.977Z,5.13
2023-05-21T11:11:43.736Z,6.53
2023-05-21T11:14:28.072Z,6.38
2023-05-21T11:16:58.658Z,7.93
2023-05-21T11:19:35.994Z,8.05
2023-05-21T11:22:09.049Z,5.72
2023-05-21T11:24:40.061Z,8.40
2023-05-21T11:27:08.720Z,4.93
2023-05-21T11:29:41.662Z,7.50
2023-05-21T11:32:11.004Z,6.53
2023-05-21T11:34:40.487Z,5.40
2023-05-21T11:37:40.927Z,5.80
2023-05-21T11:40:20.756Z,9.68
2023-05-21T11:42:53.234Z,5.63
2023-05-21T11:45:22.338Z,6.68
2023-05-21T11:47:52.011Z,9.45
2023-05-21T11:50:21.152Z,8.23
2023-05-21T11:52:50.517Z,9.90
2023-05-21T11:55:25.013Z,5.03
2023-05-21T11:57:55.428Z,7.03
2023-05-21T12:00:24.544Z,8.55
2023-05-21T12:02:55.675Z,6.05
2023-05-21T12:05:25.212Z,7.68
2023-05-21T12:07:55.486Z,7.32
2023-05-21T12:10:25.186Z,7.65
2023-05-21T12:12:56.229Z,5.95
2023-05-21T12:15:26.282Z,6.82
2023-05-21T12:17:55.067Z,7.55
2023-05-21T12:20:23.889Z,5.72
2023-05-21T12:22:52.163Z,11.80
2023-05-21T12:25:21.380Z,5.38
2023-05-21T12:27:52.873Z,7.28
2023-05-21T12:30:22.158Z,6.70
2023-05-21T12:32:50.780Z,7.32
2023-05-21T12:35:23.051Z,6.40
2023-05-21T12:37:52.131Z,7.70
2023-05-21T12:40:20.971Z,6.95
2023-05-21T12:42:52.054Z,6.68
2023-05-21T12:45:22.832Z,8.32
2023-05-21T12:47:56.392Z,6.82
2023-05-21T12:50:25.127Z,7.45
2023-05-21T12:52:56.507Z,6.95
2023-05-21T12:55:25.945Z,7.15
2023-05-21T12:58:04.260Z,8.15
2023-05-21T13:00:34.710Z,6.72
2023-05-21T13:03:06.059Z,6.50
2023-05-21T13:05:34.823Z,6.75
2023-05-21T13:08:03.194Z,7.85
2023-05-21T13:10:31.775Z,6.38
2023-05-21T13:13:02.941Z,13.57
2023-05-21T13:15:33.276Z,6.45
2023-05-21T13:18:01.939Z,6.88
2023-05-21T13:20:30.590Z,6.55
2023-05-21T13:22:59.522Z,6.72
2023-05-21T13:25:29.839Z,7.00
2023-05-21T13:27:59.014Z,6.07
2023-05-21T13:30:27.351Z,9.23
2023-05-21T13:32:57.406Z,6.35
2023-05-21T13:35:26.233Z,6.68
2023-05-21T13:37:54.620Z,6.60
2023-05-21T13:40:24.097Z,7.40
2023-05-21T13:42:52.540Z,8.23
2023-05-21T13:45:21.869Z,8.82
2023-05-21T13:47:50.489Z,8.63
2023-05-21T13:50:20.192Z,8.57
2023-05-21T13:52:48.542Z,6.45
2023-05-21T13:55:16.976Z,8.40
2023-05-21T13:57:45.865Z,10.75
2023-05-21T14:00:15.472Z,6.20
2023-05-21T14:02:44.387Z,7.63
2023-05-21T14:05:12.893Z,10.90
2023-05-21T14:07:42.924Z,8.50
2023-05-21T14:10:11.773Z,8.30
2023-05-21T14:12:40.724Z,9.32
2023-05-21T14:15:09.829Z,7.55
2023-05-21T14:17:40.238Z,8.40
2023-05-21T14:20:09.523Z,6.53
2023-05-21T14:22:38.056Z,6.47
2023-05-21T14:25:10.893Z,6.60
2023-05-21T14:27:39.626Z,6.10
2023-05-21T14:30:08.549Z,8.25
2023-05-21T14:32:36.914Z,6.30
2023-05-21T14:35:05.893Z,8.60
2023-05-21T14:37:34.303Z,7.38
2023-05-21T14:40:02.632Z,6.18
2023-05-21T14:42:32.411Z,7.63
2023-05-21T14:45:16.898Z,12.15
2023-05-21T14:47:47.818Z,7.38
2023-05-21T14:50:17.041Z,7.65
2023-05-21T14:52:45.691Z,6.63
2023-05-21T14:55:16.705Z,4.45
2023-05-21T14:57:46.552Z,7.05
2023-05-21T15:00:15.160Z,7.38
2023-05-21T15:02:43.797Z,7.10
2023-05-21T15:05:12.351Z,7.97
2023-05-21T15:07:40.718Z,7.68
2023-05-21T15:10:09.901Z,9.70
2023-05-21T15:12:39.534Z,9.40
2023-05-21T15:15:10.031Z,6.57
2023-05-21T15:17:38.534Z,7.72
2023-05-21T15:20:07.517Z,7.88
2023-05-21T15:22:36.321Z,8.38
2023-05-21T15:25:05.296Z,6.68
2023-05-21T15:27:33.778Z,5.15
2023-05-21T15:30:02.388Z,8.13
2023-05-21T15:32:32.409Z,6.32
2023-05-21T15:35:00.862Z,7.53
2023-05-21T15:37:32.138Z,5.05
2023-05-21T15:40:01.058Z,6.45
2023-05-21T15:42:31.862Z,5.97
2023-05-21T15:45:00.662Z,7.70
2023-05-21T15:47:29.698Z,6.88
2023-05-21T15:50:00.446Z,7.53
2023-05-21T15:52:29.095Z,5.82
2023-05-21T15:54:57.500Z,9.63
2023-05-21T15:57:25.826Z,8.57
2023-05-21T15:59:54.178Z,7.30
2023-05-21T16:02:22.628Z,5.18
2023-05-21T16:04:51.970Z,8.73
2023-05-21T16:07:21.900Z,7.22
2023-05-21T16:09:50.757Z,8.25
2023-05-21T16:12:19.170Z,4.85
2023-05-21T16:14:49.862Z,8.63
2023-05-21T16:17:18.991Z,8.52
2023-05-21T16:19:47.710Z,8.90
2023-05-21T16:22:16.398Z,5.95
2023-05-21T16:24:46.197Z,7.68
2023-05-21T16:27:14.549Z,6.05
2023-05-21T16:29:42.967Z,7.38
2023-05-21T16:32:13.119Z,4.88
2023-05-21T16:34:41.480Z,7.82
2023-05-21T16:37:10.090Z,6.55
2023-05-21T16:39:38.559Z,9.52
2023-05-21T16:42:08.364Z,9.27
2023-05-21T16:44:37.910Z,9.20
2023-05-21T16:47:06.693Z,5.88
2023-05-21T16:49:34.998Z,5.78
2023-05-21T16:52:03.436Z,8.13
2023-05-21T16:54:31.968Z,7.38
2023-05-21T16:57:00.490Z,5.80
2023-05-21T16:59:30.720Z,10.80
2023-05-21T17:01:59.904Z,5.85
2023-05-21T17:04:28.686Z,6.53
2023-05-21T17:06:56.982Z,7.45
2023-05-21T17:09:25.825Z,8.40
2023-05-21T17:11:54.243Z,5.90
2023-05-21T17:14:33.231Z,6.53
2023-05-21T17:17:03.891Z,6.30
2023-05-21T17:19:32.329Z,10.70
2023-05-21T17:22:00.712Z,9.77
2023-05-21T17:24:29.633Z,7.55
2023-05-21T17:26:57.922Z,4.63
2023-05-21T17:29:26.642Z,7.70
2023-05-21T17:31:55.191Z,4.70
2023-05-21T17:34:29.550Z,7.50
2023-05-21T17:36:58.630Z,6.35
2023-05-21T17:39:27.491Z,6.50
2023-05-21T17:41:57.365Z,6.55
2023-05-21T17:44:26.066Z,6.28
2023-05-21T17:46:54.353Z,7.10
2023-05-21T17:49:22.709Z,8.00
2023-05-21T17:51:52.684Z,6.40
2023-05-21T17:54:21.359Z,5.68
2023-05-21T17:56:49.723Z,7.78
2023-05-21T17:59:18.217Z,8.23
2023-05-21T18:01:46.568Z,5.53
2023-05-21T18:04:14.901Z,9.27
2023-05-21T18:06:44.404Z,5.35
2023-05-21T18:09:15.381Z,8.32
2023-05-21T18:11:44.685Z,7.00
2023-05-21T18:14:13.165Z,7.93
2023-05-21T18:16:41.820Z,8.88
2023-05-21T18:19:10.248Z,8.00
2023-05-21T18:21:38.994Z,5.97
2023-05-21T18:24:07.836Z,7.47
2023-05-21T18:26:37.475Z,8.95
2023-05-21T18:29:05.998Z,5.40
2023-05-21T18:31:34.350Z,8.70
2023-05-21T18:34:02.719Z,5.90
2023-05-21T18:36:38.437Z,10.48
2023-05-21T18:39:07.163Z,6.13
2023-05-21T18:41:35.784Z,8.32
2023-05-21T18:44:06.116Z,6.75
2023-05-21T18:46:35.038Z,8.07
2023-05-21T18:49:03.513Z,8.75
2023-05-21T18:51:31.951Z,9.77
2023-05-21T18:54:00.541Z,5.95
2023-05-21T18:56:28.863Z,8.88
2023-05-21T18:58:57.275Z,10.05
2023-05-21T19:01:26.869Z,11.40
2023-05-21T19:03:55.386Z,13.25
2023-05-21T19:06:25.532Z,10.85
2023-05-21T19:08:53.873Z,9.77
2023-05-21T19:11:23.546Z,7.68
2023-05-21T19:13:52.177Z,10.25
2023-05-21T19:16:20.680Z,8.43
2023-05-21T19:18:50.900Z,7.63
2023-05-21T19:21:19.645Z,9.15
2023-05-21T19:23:53.180Z,8.57
2023-05-21T19:26:23.430Z,16.17
2023-05-21T19:28:53.705Z,12.07
2023-05-21T19:31:22.802Z,8.82
2023-05-21T19:33:52.908Z,6.57
2023-05-21T19:36:22.320Z,8.43
2023-05-21T19:38:50.676Z,7.30
2023-05-21T19:41:19.584Z,5.13
2023-05-21T19:43:47.853Z,5.82
2023-05-21T19:46:19.271Z,8.80
2023-05-21T19:48:49.218Z,4.75
2023-05-21T19:51:19.049Z,5.80
2023-05-21T19:53:47.367Z,7.82
2023-05-21T19:56:15.859Z,5.43
2023-05-21T19:58:47.246Z,6.40
2023-05-21T20:01:15.844Z,5.22
2023-05-21T20:03:45.105Z,5.68
2023-05-21T20:06:15.319Z,6.68
2023-05-21T20:08:45.158Z,10.32
2023-05-21T20:11:13.575Z,5.47
2023-05-21T20:13:42.640Z,9.40
2023-05-21T20:16:12.668Z,7.72
2023-05-21T20:18:41.671Z,9.48
2023-05-21T20:21:12.687Z,7.28
2023-05-21T20:23:40.962Z,7.63
2023-05-21T20:26:10.801Z,7.38
2023-05-21T20:28:39.150Z,5.85
2023-05-21T20:31:07.824Z,7.28
2023-05-21T20:33:39.374Z,8.43
2023-05-21T20:36:08.948Z,13.38
2023-05-21T20:38:38.296Z,9.95
2023-05-21T20:41:06.896Z,10.27
2023-05-21T20:43:37.456Z,8.38
2023-05-21T20:46:08.464Z,7.70
2023-05-21T20:48:37.721Z,7.00
2023-05-21T20:51:09.248Z,7.25
2023-05-21T20:53:37.873Z,9.32
2023-05-21T20:56:08.551Z,11.70
2023-05-21T20:58:39.968Z,10.02
2023-05-21T21:01:10.522Z,8.23
2023-05-21T21:03:41.422Z,12.48
2023-05-21T21:06:09.944Z,10.88
2023-05-21T21:08:40.202Z,7.93
2023-05-21T21:11:09.307Z,10.93
2023-05-21T21:13:39.458Z,12.50
2023-05-21T21:16:08.441Z,11.13
2023-05-21T21:18:36.777Z,9.50
2023-05-21T21:21:05.322Z,11.05
2023-05-21T21:23:33.793Z,6.75
2023-05-21T21:26:02.230Z,17.52
2023-05-21T21:28:31.126Z,14.75
2023-05-21T21:31:00.997Z,9.75
2023-05-21T21:33:29.711Z,12.38
2023-05-21T21:35:58.320Z,9.43
2023-05-21T21:38:26.702Z,10.70
2023-05-21T21:40:57.749Z,9.95
2023-05-21T21:43:26.548Z,14.80
2023-05-21T21:45:57.381Z,11.02
2023-05-21T21:48:27.051Z,16.23
2023-05-21T21:50:55.800Z,14.32
2023-05-21T21:53:26.585Z,11.48
2023-05-21T21:55:55.935Z,11.90
2023-05-21T21:58:24.352Z,12.43
2023-05-21T22:00:52.782Z,12.35
2023-05-21T22:03:21.723Z,9.05
2023-05-21T22:05:55.078Z,16.00
2023-05-21T22:08:23.472Z,14.10
2023-05-21T22:10:52.428Z,15.20
2023-05-21T22:13:23.084Z,14.45
2023-05-21T22:15:55.079Z,12.73
2023-05-21T22:18:38.797Z,15.57
2023-05-21T22:21:11.022Z,10.27
2023-05-21T22:23:42.360Z,13.25
2023-05-21T22:26:10.691Z,10.73
2023-05-21T22:28:42.110Z,11.73
2023-05-21T22:31:10.733Z,16.08
2023-05-21T22:33:39.185Z,12.18
2023-05-21T22:36:07.724Z,17.05
2023-05-21T22:38:37.811Z,15.45
2023-05-21T22:41:06.201Z,17.05
2023-05-21T22:43:35.136Z,9.93
2023-05-21T22:46:03.633Z,19.20
2023-05-21T22:48:37.081Z,8.15
2023-05-21T22:51:05.760Z,10.68
2023-05-21T22:53:35.607Z,9.57
2023-05-21T22:56:05.548Z,15.00
2023-05-21T22:58:36.876Z,11.15
2023-05-21T23:01:10.447Z,15.77
2023-05-21T23:03:39.415Z,11.57
2023-05-21T23:06:10.154Z,12.40
2023-05-21T23:08:40.831Z,11.48
2023-05-21T23:11:12.940Z,11.35
2023-05-21T23:13:41.296Z,12.13
2023-05-21T23:16:14.747Z,18.63
2023-05-21T23:18:45.817Z,11.18
2023-05-21T23:21:16.486Z,11.20
2023-05-21T23:23:44.994Z,15.60
2023-05-21T23:26:17.160Z,11.05
2023-05-21T23:28:45.507Z,10.07
2023-05-21T23:31:13.900Z,14.48
2023-05-21T23:33:42.604Z,17.02
2023-05-21T23:36:13.437Z,10.65
2023-05-21T23:38:41.861Z,12.07
2023-05-21T23:41:12.770Z,14.27
2023-05-21T23:43:42.792Z,14.00
2023-05-21T23:46:11.186Z,10.18
2023-05-21T23:48:39.574Z,11.05
2023-05-21T23:51:08.040Z,13.63
2023-05-21T23:53:36.695Z,16.42
2023-05-21T23:56:05.322Z,16.73
2023-05-21T23:58:33.593Z,14.77
